Time;durP1;ratioP1;P1;durP2;ratioP2;P2;SDS_P1;SDS_P2;PMS_P1;PMS_P2;Temp;Humidity;BMP_temperature;BMP_pressure;BME280_temperature;BME280_humidity;BME280_pressure;Samples;Min_cycle;Max_cycle;Signal;HPM_P1;HPM_P2
2021/09/25 00:00:24;;;;;;;16.53;11.17;;;11.70;96.70;;;10.55;98.19;98125.88;5069263;28;20441;-83
2021/09/25 00:02:51;;;;;;;12.47;11.37;;;11.60;96.50;;;10.47;97.56;98124.25;5062689;28;20445;-82
2021/09/25 00:05:18;;;;;;;12.33;11.33;;;11.60;96.70;;;10.40;98.42;98121.53;5069511;28;21054;-81
2021/09/25 00:07:45;;;;;;;12.90;11.80;;;11.50;97.10;;;10.37;98.88;98123.81;5067951;28;20547;-83
2021/09/25 00:10:12;;;;;;;11.97;10.97;;;11.50;97.50;;;10.33;98.19;98118.84;5086399;28;21026;-83
2021/09/25 00:12:39;;;;;;;14.70;11.90;;;11.50;97.30;;;10.25;98.79;98104.72;5065329;28;20453;-83
2021/09/25 00:15:07;;;;;;;12.70;11.60;;;11.40;97.40;;;10.30;98.61;98113.84;5068956;28;21082;-82
2021/09/25 00:17:35;;;;;;;12.37;11.40;;;11.50;97.30;;;10.25;99.01;98116.34;5067625;28;21033;-84
2021/09/25 00:20:02;;;;;;;12.60;11.50;;;11.40;97.30;;;10.26;98.22;98112.59;5084656;28;20548;-82
2021/09/25 00:22:29;;;;;;;13.10;12.00;;;11.40;96.70;;;10.32;97.89;98110.94;5069708;28;20548;-81
2021/09/25 00:24:56;;;;;;;11.77;10.70;;;11.40;96.90;;;10.23;99.14;98123.00;5070058;28;20469;-81
2021/09/25 00:27:24;;;;;;;14.07;12.67;;;11.30;97.30;;;10.11;98.96;98115.56;5070725;28;20517;-82
2021/09/25 00:29:51;;;;;;;14.00;12.90;;;11.30;97.20;;;10.11;98.62;98110.16;5069035;28;20547;-81
2021/09/25 00:32:18;;;;;;;13.70;12.30;;;11.20;97.50;;;10.16;98.72;98121.13;5070601;28;20550;-81
2021/09/25 00:34:46;;;;;;;13.90;12.70;;;11.30;97.60;;;10.10;98.90;98119.28;5070044;28;20516;-81
2021/09/25 00:37:13;;;;;;;12.30;11.30;;;11.20;97.90;;;10.01;99.45;98117.84;5065290;28;20454;-81
2021/09/25 00:39:40;;;;;;;12.80;11.50;;;11.20;98.40;;;10.00;99.61;98114.28;5069497;28;20545;-79
2021/09/25 00:42:07;;;;;;;13.83;12.40;;;11.10;99.00;;;10.00;99.87;98118.88;5076324;28;20491;-79
2021/09/25 00:44:35;;;;;;;12.87;11.77;;;11.10;98.60;;;9.99;99.21;98115.34;5076811;28;20537;-80
2021/09/25 00:47:02;;;;;;;12.03;10.73;;;11.10;98.20;;;9.99;98.79;98119.91;5065740;28;21064;-80
2021/09/25 00:49:29;;;;;;;12.97;11.87;;;11.10;97.90;;;9.92;98.98;98120.75;5071746;28;20465;-79
2021/09/25 00:51:57;;;;;;;12.93;11.67;;;11.00;97.80;;;9.93;98.88;98121.59;5072288;28;20467;-81
2021/09/25 00:54:25;;;;;;;12.20;10.13;;;11.00;98.00;;;9.87;99.10;98123.25;5076007;28;20483;-80
2021/09/25 00:56:52;;;;;;;12.97;11.87;;;10.90;98.90;;;9.83;98.57;98126.56;5071522;28;20475;-78
2021/09/25 00:59:19;;;;;;;13.10;11.80;;;10.90;99.00;;;9.83;98.36;98126.56;5068488;28;20511;-80
2021/09/25 01:01:47;;;;;;;12.90;11.60;;;10.90;98.60;;;9.74;99.13;98123.25;5069033;28;20555;-79
2021/09/25 01:04:14;;;;;;;13.30;12.10;;;10.90;97.80;;;9.71;99.63;98110.19;5066826;28;20507;-80
2021/09/25 01:06:41;;;;;;;13.30;12.00;;;10.80;98.10;;;9.67;99.50;98122.44;5067839;28;20477;-82
2021/09/25 01:09:10;;;;;;;12.93;11.73;;;10.80;98.70;;;9.68;98.98;98113.28;5070451;28;20487;-82
2021/09/25 01:11:37;;;;;;;13.37;12.17;;;10.80;98.70;;;9.62;99.22;98109.56;5072284;28;20452;-82
2021/09/25 01:14:05;;;;;;;13.70;12.50;;;10.70;99.00;;;9.56;99.38;98108.50;5067660;28;20480;-80
2021/09/25 01:16:33;;;;;;;13.73;12.53;;;10.70;99.00;;;9.55;100.00;98103.31;5066604;28;20522;-82
2021/09/25 01:19:00;;;;;;;13.10;11.90;;;10.70;99.50;;;9.55;100.00;98106.84;5071197;28;20515;-81
2021/09/25 01:21:29;;;;;;;14.67;13.27;;;10.70;99.70;;;9.55;100.00;98106.84;5069373;28;20535;-82
2021/09/25 01:23:56;;;;;;;13.40;12.00;;;10.60;99.50;;;9.54;100.00;98112.44;5071424;28;20496;-83
2021/09/25 01:26:24;;;;;;;12.43;11.23;;;10.60;99.90;;;9.52;99.90;98107.28;5064646;28;20506;-82
2021/09/25 01:28:53;;;;;;;13.33;12.13;;;10.60;99.70;;;9.46;99.72;98094.59;5066866;28;20461;-81
2021/09/25 01:31:21;;;;;;;14.00;12.80;;;10.60;99.70;;;9.55;100.00;98106.84;5073091;28;20449;-82
2021/09/25 01:33:52;;;;;;;14.93;12.53;;;10.60;99.90;;;9.46;100.00;98111.63;5069052;28;20544;-82
2021/09/25 01:36:20;;;;;;;13.60;12.40;;;10.60;99.90;;;9.50;100.00;98103.94;5066460;28;21018;-80
2021/09/25 01:38:48;;;;;;;14.43;12.30;;;10.60;99.90;;;9.38;100.00;98113.69;5070701;28;21023;-81
2021/09/25 01:41:16;;;;;;;13.70;12.60;;;10.50;99.90;;;9.33;100.00;98100.81;5071139;28;20453;-81
2021/09/25 01:43:44;;;;;;;12.63;11.50;;;10.50;99.90;;;9.50;100.00;98117.44;5065691;28;20560;-81
2021/09/25 01:46:11;;;;;;;13.77;12.57;;;10.60;99.90;;;9.40;99.85;98106.22;5073118;28;20556;-83
2021/09/25 01:48:39;;;;;;;12.77;11.70;;;10.60;98.90;;;9.37;99.74;98112.03;5066724;28;20461;-81
2021/09/25 01:51:06;;;;;;;12.40;11.40;;;10.50;98.40;;;9.36;99.48;98105.78;5071395;28;20499;-83
2021/09/25 01:53:33;;;;;;;13.17;11.93;;;10.50;98.50;;;9.31;100.00;98106.41;5070737;28;20460;-83
2021/09/25 01:56:10;;;;;;;14.03;12.77;;;10.50;98.50;;;9.29;99.58;98100.38;5060421;28;20504;-83
2021/09/25 01:58:37;;;;;;;13.50;12.40;;;10.40;99.10;;;9.25;100.00;98101.84;5068622;28;20466;-82
2021/09/25 02:01:05;;;;;;;13.90;12.60;;;10.40;99.30;;;9.16;99.81;98090.41;5077687;28;20518;-82
2021/09/25 02:03:35;;;;;;;13.50;12.20;;;10.40;99.50;;;9.24;100.00;98102.88;5072361;28;20468;-82
2021/09/25 02:06:03;;;;;;;12.83;11.60;;;10.40;99.70;;;9.16;100.00;98105.75;5069689;28;20483;-82
2021/09/25 02:08:30;;;;;;;12.93;11.63;;;10.30;99.60;;;9.22;100.00;98115.72;5074096;28;20460;-82
2021/09/25 02:10:58;;;;;;;12.63;11.50;;;10.30;99.90;;;9.14;100.00;98107.81;5073992;28;20555;-82
2021/09/25 02:13:28;;;;;;;14.70;13.30;;;10.30;99.90;;;9.21;100.00;98108.69;5072697;28;20556;-82
2021/09/25 02:15:55;;;;;;;13.77;12.50;;;10.30;99.90;;;9.20;100.00;98097.06;5073995;28;20526;-81
2021/09/25 02:18:22;;;;;;;14.53;13.23;;;10.30;99.90;;;9.21;100.00;98097.91;5071758;28;21099;-82
2021/09/25 02:20:50;;;;;;;14.03;12.70;;;10.30;99.90;;;9.26;100.00;98095.41;5069140;28;20480;-81
2021/09/25 02:23:17;;;;;;;15.60;13.03;;;10.40;99.90;;;9.26;99.86;98102.69;5074590;28;20464;-82
2021/09/25 02:25:44;;;;;;;14.93;13.63;;;10.40;99.90;;;9.20;100.00;98098.94;5070298;28;20512;-81
2021/09/25 02:28:11;;;;;;;13.50;12.40;;;10.40;99.90;;;9.20;100.00;98102.44;5073490;28;20488;-83
2021/09/25 02:30:39;;;;;;;14.03;12.73;;;10.30;99.90;;;9.26;100.00;98100.81;5074593;28;20989;-83
2021/09/25 02:33:06;;;;;;;13.47;12.27;;;10.30;99.90;;;9.33;100.00;98106.19;5072173;28;20558;-82
2021/09/25 02:35:33;;;;;;;15.23;13.83;;;10.40;99.90;;;9.33;100.00;98111.59;5072470;28;20895;-82
2021/09/25 02:38:01;;;;;;;14.87;13.57;;;10.50;99.90;;;9.32;100.00;98104.53;5070831;28;20480;-81
2021/09/25 02:40:28;;;;;;;15.00;13.60;;;10.50;99.90;;;9.33;100.00;98103.50;5069376;28;20491;-80
2021/09/25 02:42:56;;;;;;;15.10;13.53;;;10.50;99.90;;;9.39;100.00;98104.56;5073537;28;20470;-78
2021/09/25 02:45:23;;;;;;;13.87;12.60;;;10.50;99.60;;;9.35;100.00;98112.22;5071603;28;20480;-79
2021/09/25 02:47:51;;;;;;;14.03;12.83;;;10.50;99.40;;;9.35;100.00;98110.38;5071726;28;20500;-82
2021/09/25 02:50:20;;;;;;;14.37;13.07;;;10.50;99.60;;;9.28;100.00;98109.50;5067737;28;20547;-81
2021/09/25 02:52:47;;;;;;;17.27;13.70;;;10.40;99.90;;;9.28;100.00;98097.91;5065653;28;20600;-81
2021/09/25 02:55:16;;;;;;;15.17;12.87;;;10.40;99.70;;;9.22;100.00;98107.66;5071551;28;20473;-82
2021/09/25 02:57:43;;;;;;;15.43;13.77;;;10.40;99.90;;;9.29;100.00;98104.97;5064740;28;20536;-80
2021/09/25 03:00:15;;;;;;;14.13;12.90;;;10.40;99.90;;;9.29;100.00;98105.78;5061648;28;20466;-78
2021/09/25 03:02:42;;;;;;;13.87;12.53;;;10.40;99.90;;;9.24;100.00;98104.72;5068539;28;20453;-78
2021/09/25 03:05:12;;;;;;;14.67;13.17;;;10.40;99.90;;;9.21;100.00;98109.50;5063595;28;20479;-80
2021/09/25 03:07:39;;;;;;;14.63;13.23;;;10.40;99.90;;;9.19;100.00;98108.06;5074055;28;20972;-81
2021/09/25 03:10:08;;;;;;;13.87;12.57;;;10.40;99.30;;;9.23;100.00;98109.31;5071929;28;20979;-81
2021/09/25 03:12:36;;;;;;;14.10;12.80;;;10.40;99.90;;;9.22;100.00;98115.72;5075801;28;20559;-80
2021/09/25 03:15:06;;;;;;;15.93;14.47;;;10.40;99.70;;;9.26;100.00;98111.59;5076403;28;20496;-79
2021/09/25 03:17:34;;;;;;;14.20;12.90;;;10.40;99.20;;;9.15;100.00;98104.09;5073068;28;20966;-80
2021/09/25 03:20:01;;;;;;;14.53;13.20;;;10.40;99.30;;;9.24;100.00;98110.13;5071061;28;20467;-80
2021/09/25 03:22:29;;;;;;;14.00;12.80;;;10.40;99.60;;;9.19;100.00;98116.16;5074044;28;20468;-80
2021/09/25 03:24:56;;;;;;;14.33;13.13;;;10.30;99.50;;;9.25;99.65;98120.72;5075164;28;20533;-81
2021/09/25 03:27:24;;;;;;;15.80;13.93;;;10.40;99.30;;;9.16;100.00;98113.84;5077829;28;20563;-79
2021/09/25 03:29:51;;;;;;;13.43;12.20;;;10.30;99.40;;;9.15;100.00;98109.47;5075214;28;20543;-81
2021/09/25 03:32:19;;;;;;;15.73;14.30;;;10.30;99.30;;;9.10;100.00;98111.97;5073288;28;20464;-82
2021/09/25 03:34:46;;;;;;;14.50;13.20;;;10.30;99.90;;;9.05;100.00;98097.25;5074963;28;20985;-82
2021/09/25 03:37:13;;;;;;;15.40;13.87;;;10.30;99.40;;;9.04;100.00;98102.81;5076097;28;20548;-81
2021/09/25 03:39:41;;;;;;;14.47;13.17;;;10.20;99.60;;;9.07;100.00;98105.94;5070692;28;20545;-81
2021/09/25 03:42:08;;;;;;;14.27;13.07;;;10.20;99.90;;;9.13;100.00;98104.31;5070713;28;20539;-81
2021/09/25 03:44:36;;;;;;;14.63;13.23;;;10.20;99.90;;;9.10;100.00;98096.63;5062907;28;21064;-77
2021/09/25 03:47:03;;;;;;;14.53;13.27;;;10.20;99.90;;;9.07;100.00;98108.66;5067172;28;21013;-79
2021/09/25 03:49:30;;;;;;;14.87;13.57;;;10.20;99.90;;;9.06;100.00;98117.78;5071908;28;20513;-78
2021/09/25 03:51:57;;;;;;;14.50;13.00;;;10.20;99.90;;;9.05;99.63;98107.19;5070318;28;20480;-79
2021/09/25 03:54:24;;;;;;;13.73;12.53;;;10.20;99.20;;;8.99;100.00;98111.50;5081522;28;20575;-80
2021/09/25 03:56:52;;;;;;;14.97;13.57;;;10.20;98.70;;;8.84;100.00;98110.84;5071601;28;20480;-79
2021/09/25 03:59:19;;;;;;;14.43;13.07;;;10.10;99.00;;;8.86;100.00;98112.31;5070282;28;21053;-78
2021/09/25 04:01:46;;;;;;;16.47;13.60;;;10.00;99.90;;;8.96;100.00;98117.31;5070371;28;20476;-78
2021/09/25 04:04:13;;;;;;;15.70;14.20;;;10.10;99.90;;;8.92;100.00;98121.47;5072629;28;20484;-77
2021/09/25 04:06:40;;;;;;;15.17;13.83;;;10.00;99.90;;;8.99;100.00;98121.47;5072021;28;20477;-76
2021/09/25 04:09:07;;;;;;;14.50;13.00;;;10.10;99.90;;;8.91;100.00;98117.09;5069056;28;20459;-78
2021/09/25 04:11:34;;;;;;;14.57;13.27;;;10.10;99.90;;;8.91;100.00;98119.78;5067083;28;20496;-77
2021/09/25 04:14:03;;;;;;;14.17;12.87;;;10.10;99.90;;;8.85;100.00;98115.19;5069130;28;20876;-79
2021/09/25 04:16:31;;;;;;;13.90;12.60;;;10.00;99.90;;;8.81;100.00;98108.56;5074180;28;20560;-80
2021/09/25 04:18:58;;;;;;;13.20;12.07;;;10.00;99.70;;;8.72;100.00;98092.59;5073452;28;20514;-79
2021/09/25 04:21:24;;;;;;;12.93;11.63;;;10.00;99.60;;;8.77;100.00;98108.97;5072881;28;20457;-78
2021/09/25 04:23:51;;;;;;;13.23;12.03;;;10.00;98.70;;;8.68;100.00;98120.13;5070788;28;20488;-81
2021/09/25 04:26:18;;;;;;;13.23;12.13;;;9.90;99.90;;;8.67;99.89;98124.66;5071825;28;20491;-75
2021/09/25 04:28:46;;;;;;;14.13;12.90;;;9.80;99.90;;;8.70;100.00;98118.88;5064748;28;20468;-78
2021/09/25 04:31:14;;;;;;;14.93;13.60;;;9.80;99.90;;;8.62;100.00;98130.66;5066595;28;20467;-78
2021/09/25 04:33:41;;;;;;;14.70;13.40;;;9.80;99.50;;;8.60;100.00;98129.19;5072395;28;20464;-80
2021/09/25 04:36:09;;;;;;;14.40;12.87;;;9.80;99.90;;;8.52;100.00;98134.75;5071272;28;20495;-78
2021/09/25 04:38:36;;;;;;;13.33;12.17;;;9.70;99.90;;;8.54;100.00;98135.38;5064325;28;20547;-79
2021/09/25 04:41:03;;;;;;;14.53;13.17;;;9.70;99.90;;;8.56;100.00;98133.31;5066538;28;20555;-80
2021/09/25 04:43:30;;;;;;;14.53;13.23;;;9.70;99.90;;;8.58;100.00;98133.97;5068432;28;20467;-79
2021/09/25 04:45:57;;;;;;;14.07;12.80;;;9.70;99.90;;;8.53;100.00;98139.94;5071113;28;20590;-78
2021/09/25 04:48:26;;;;;;;14.20;12.60;;;9.70;99.90;;;8.53;100.00;98128.31;5062457;28;20558;-79
2021/09/25 04:50:53;;;;;;;13.70;12.40;;;9.70;99.90;;;8.37;100.00;98119.50;5071926;28;20838;-77
2021/09/25 04:53:20;;;;;;;13.67;12.30;;;9.60;99.90;;;8.44;100.00;98127.63;5065703;28;20495;-78
2021/09/25 04:55:47;;;;;;;14.10;12.80;;;9.60;99.90;;;8.43;100.00;98134.03;5066868;28;20480;-80
2021/09/25 04:58:15;;;;;;;14.60;13.20;;;9.60;99.90;;;8.49;99.93;98130.53;5072055;28;20535;-78
2021/09/25 05:00:42;;;;;;;15.07;13.60;;;9.60;99.70;;;8.41;99.98;98136.94;5068540;28;20457;-79
2021/09/25 05:03:09;;;;;;;14.03;12.63;;;9.60;98.90;;;8.34;100.00;98130.69;5069205;28;20461;-79
2021/09/25 05:05:37;;;;;;;13.77;12.57;;;9.60;98.90;;;8.34;100.00;98136.06;5082637;28;20482;-81
2021/09/25 05:08:05;;;;;;;14.90;13.60;;;9.50;99.10;;;8.39;100.00;98130.09;5065588;28;23083;-82
2021/09/25 05:10:32;;;;;;;13.83;12.57;;;9.60;99.50;;;8.37;100.00;98138.34;5070944;28;20522;-80
2021/09/25 05:12:59;;;;;;;14.93;13.63;;;9.60;99.10;;;8.39;100.00;98136.28;5064992;28;20521;-79
2021/09/25 05:15:26;;;;;;;14.10;12.80;;;9.60;99.30;;;8.42;100.00;98133.22;5070081;28;20486;-79
2021/09/25 05:17:53;;;;;;;14.63;13.13;;;9.60;99.30;;;8.36;100.00;98139.38;5073524;28;20449;-79
2021/09/25 05:20:20;;;;;;;14.53;13.27;;;9.50;99.00;;;8.32;100.00;98138.13;5066831;28;20668;-81
2021/09/25 05:22:49;;;;;;;14.00;12.60;;;9.50;99.90;;;8.42;99.99;98138.63;5065263;28;20554;-77
2021/09/25 05:25:16;;;;;;;16.80;12.80;;;9.60;98.80;;;8.32;100.00;98133.56;5067382;28;21647;-79
2021/09/25 05:27:43;;;;;;;13.87;12.77;;;9.60;98.20;;;8.46;99.53;98147.94;5067822;28;20928;-71
2021/09/25 05:30:13;;;;;;;15.10;13.80;;;9.60;98.40;;;8.54;99.36;98143.44;5070534;28;20540;-71
2021/09/25 05:32:39;;;;;;;15.20;13.43;;;9.70;98.10;;;8.56;99.29;98139.53;5071861;28;20575;-71
2021/09/25 05:35:08;;;;;;;14.57;13.20;;;9.70;97.60;;;8.70;98.50;98143.13;5071552;28;20516;-71
2021/09/25 05:37:35;;;;;;;14.67;13.17;;;9.80;96.90;;;8.67;99.20;98151.59;5064157;28;20464;-72
2021/09/25 05:40:06;;;;;;;15.30;13.80;;;9.80;97.00;;;8.54;98.53;98119.22;5055470;28;20482;-71
2021/09/25 05:42:33;;;;;;;14.87;13.57;;;9.90;96.60;;;8.68;99.25;98138.97;5063218;28;20530;-72
2021/09/25 05:45:00;;;;;;;15.40;13.73;;;9.90;97.10;;;8.81;98.01;98140.88;5063894;28;20476;-72
2021/09/25 05:47:27;;;;;;;14.73;13.43;;;10.00;96.00;;;8.85;98.27;98147.53;5069484;28;20523;-71
2021/09/25 05:49:54;;;;;;;13.27;12.07;;;10.00;95.80;;;8.82;98.28;98143.41;5066234;28;20512;-71
2021/09/25 05:52:21;;;;;;;14.30;12.90;;;10.00;95.60;;;8.95;98.17;98145.28;5058494;28;20465;-71
2021/09/25 05:54:49;;;;;;;15.10;13.83;;;10.10;96.00;;;9.00;97.71;98150.91;5068060;28;20492;-73
2021/09/25 05:57:17;;;;;;;13.50;12.10;;;10.20;95.30;;;8.92;97.77;98134.94;5069432;28;20453;-70
2021/09/25 05:59:44;;;;;;;14.50;13.10;;;10.20;95.20;;;9.15;97.96;98136.44;5069128;28;20499;-71
2021/09/25 06:02:12;;;;;;;15.47;14.10;;;10.20;95.30;;;9.18;96.75;98144.13;5068512;28;20463;-72
2021/09/25 06:04:39;;;;;;;14.63;13.33;;;10.30;95.00;;;9.27;97.55;98140.19;5066083;28;20488;-77
2021/09/25 06:07:09;;;;;;;13.80;12.50;;;10.30;95.10;;;9.35;96.44;98142.72;5068010;28;20903;-70
2021/09/25 06:09:36;;;;;;;14.43;13.20;;;10.40;94.00;;;9.49;95.40;98148.16;5063441;28;20488;-70
2021/09/25 06:12:04;;;;;;;13.07;11.97;;;10.60;93.90;;;9.51;95.80;98146.06;5061932;28;20774;-70
2021/09/25 06:14:32;;;;;;;12.03;10.93;;;10.60;93.50;;;9.54;95.50;98145.66;5067689;28;20560;-71
2021/09/25 06:16:59;;;;;;;14.57;13.33;;;10.70;93.30;;;9.55;95.72;98141.06;5061428;28;20543;-71
2021/09/25 06:19:27;;;;;;;12.77;11.47;;;10.70;93.30;;;9.61;95.55;98143.78;5058463;28;20559;-76
2021/09/25 06:21:54;;;;;;;14.00;11.97;;;10.80;92.90;;;9.60;95.56;98139.41;5063088;28;20503;-71
2021/09/25 06:24:21;;;;;;;13.97;12.67;;;10.80;92.90;;;9.74;94.89;98142.13;5066931;28;20511;-70
2021/09/25 06:26:49;;;;;;;12.20;11.00;;;10.80;92.80;;;9.87;94.27;98144.03;5063033;28;20492;-68
2021/09/25 06:29:16;;;;;;;12.53;11.40;;;10.90;92.00;;;9.91;94.06;98139.84;5060673;28;20557;-71
2021/09/25 06:31:44;;;;;;;12.50;11.20;;;11.00;92.00;;;9.91;94.21;98132.56;5059738;28;20461;-71
2021/09/25 06:34:11;;;;;;;13.07;11.97;;;11.10;91.80;;;9.99;94.01;98138.81;5063101;28;20483;-71
2021/09/25 06:36:41;;;;;;;12.83;11.63;;;11.10;91.80;;;10.09;93.35;98144.63;5065970;28;20496;-70
2021/09/25 06:39:08;;;;;;;12.27;11.07;;;11.20;91.60;;;10.21;92.26;98142.94;5063420;28;20456;-71
2021/09/25 06:41:35;;;;;;;13.20;11.93;;;11.30;90.80;;;10.12;91.99;98130.72;5063876;28;20551;-70
2021/09/25 06:44:02;;;;;;;12.77;11.57;;;11.30;90.60;;;10.31;91.31;98138.97;5070206;28;22261;-71
2021/09/25 06:46:29;;;;;;;13.50;12.30;;;11.40;90.50;;;10.46;90.43;98142.31;5063542;28;20491;-70
2021/09/25 06:48:57;;;;;;;12.07;10.87;;;11.50;90.20;;;10.55;91.05;98142.09;5071666;28;20562;-71
2021/09/25 06:51:24;;;;;;;12.40;11.30;;;11.60;90.10;;;10.53;90.82;98141.44;5065193;28;20556;-71
2021/09/25 06:53:51;;;;;;;13.20;11.90;;;11.60;89.60;;;10.61;90.73;98133.97;5067099;28;20471;-71
2021/09/25 06:56:19;;;;;;;12.37;11.10;;;11.70;89.10;;;10.72;90.07;98142.44;5066353;28;21326;-70
2021/09/25 06:58:46;;;;;;;12.30;11.10;;;11.80;88.90;;;10.97;89.67;98142.53;5070138;28;20484;-70
2021/09/25 07:01:13;;;;;;;14.90;11.57;;;11.90;88.40;;;10.99;88.52;98143.13;5067767;28;20449;-71
2021/09/25 07:03:40;;;;;;;15.83;11.43;;;12.10;87.70;;;11.01;88.82;98140.22;5064397;28;20449;-70
2021/09/25 07:06:09;;;;;;;13.27;11.97;;;12.10;87.40;;;11.16;88.72;98137.25;5066020;28;20477;-70
2021/09/25 07:08:36;;;;;;;12.50;11.40;;;12.20;87.40;;;11.26;87.96;98139.50;5064093;28;20572;-70
2021/09/25 07:11:03;;;;;;;15.73;12.80;;;12.30;86.70;;;11.47;87.15;98135.63;5064664;28;20471;-71
2021/09/25 07:13:31;;;;;;;13.57;12.37;;;12.40;86.40;;;11.58;87.37;98140.31;5064412;28;20513;-70
2021/09/25 07:15:58;;;;;;;12.63;11.43;;;12.60;86.20;;;11.60;86.47;98135.53;5067393;28;20556;-70
2021/09/25 07:18:25;;;;;;;13.60;12.30;;;12.60;85.20;;;11.71;86.58;98152.09;5060620;28;20455;-71
2021/09/25 07:20:52;;;;;;;17.03;11.87;;;12.80;85.50;;;11.93;86.11;98151.72;5065105;28;20492;-71
2021/09/25 07:23:20;;;;;;;13.07;11.87;;;12.90;85.00;;;11.95;85.99;98149.63;5070692;28;21006;-71
2021/09/25 07:25:47;;;;;;;13.03;11.83;;;13.00;84.60;;;12.21;84.96;98147.75;5067661;28;20476;-70
2021/09/25 07:28:14;;;;;;;13.83;12.23;;;13.20;84.00;;;12.36;84.04;98148.25;5063000;28;20468;-71
2021/09/25 07:30:43;;;;;;;13.30;12.00;;;13.30;83.50;;;12.47;83.58;98135.84;5062644;28;20461;-71
2021/09/25 07:33:11;;;;;;;13.63;11.93;;;13.40;82.80;;;12.39;83.98;98147.78;5062281;28;20467;-71
2021/09/25 07:35:38;;;;;;;13.87;12.57;;;13.40;82.90;;;12.45;84.48;98136.06;5059555;28;20483;-71
2021/09/25 07:38:07;;;;;;;13.23;11.97;;;13.50;83.10;;;12.73;83.16;98145.53;5067209;28;20893;-70
2021/09/25 07:40:36;;;;;;;12.60;11.50;;;13.60;82.70;;;12.90;82.16;98144.94;5068583;28;20464;-72
2021/09/25 07:43:04;;;;;;;12.87;11.67;;;13.80;82.00;;;12.95;82.02;98161.34;5064401;28;20441;-71
2021/09/25 07:45:31;;;;;;;13.40;12.20;;;14.00;81.50;;;12.84;82.99;98153.97;5066885;28;20524;-70
2021/09/25 07:47:59;;;;;;;17.10;13.90;;;14.00;81.70;;;12.89;83.14;98163.09;5065135;28;20469;-70
2021/09/25 07:50:27;;;;;;;13.37;11.90;;;14.00;81.80;;;13.12;82.43;98161.56;5066633;28;20454;-71
2021/09/25 07:52:56;;;;;;;14.20;12.90;;;14.10;81.60;;;13.34;81.35;98158.34;5064722;28;21039;-72
2021/09/25 07:55:24;;;;;;;13.93;12.33;;;14.20;81.20;;;13.41;81.02;98163.66;5068267;28;20541;-72
2021/09/25 07:57:53;;;;;;;13.27;11.97;;;14.40;80.80;;;13.62;81.00;98164.25;5066145;28;20453;-71
2021/09/25 08:00:22;;;;;;;14.43;11.43;;;14.50;80.80;;;13.72;80.35;98169.94;5064056;28;20472;-71
2021/09/25 08:02:50;;;;;;;13.80;12.23;;;14.70;80.40;;;13.82;80.35;98175.63;5069004;28;20457;-72
2021/09/25 08:05:18;;;;;;;14.50;13.10;;;14.80;79.90;;;13.83;80.27;98181.91;5066150;28;20477;-71
2021/09/25 08:07:45;;;;;;;14.27;12.90;;;14.90;79.50;;;14.07;79.19;98177.34;5061953;28;20475;-72
2021/09/25 08:10:15;;;;;;;12.87;11.77;;;15.00;79.30;;;14.21;78.41;98171.69;5061804;28;20556;-71
2021/09/25 08:12:43;;;;;;;13.57;12.37;;;15.10;78.70;;;14.27;78.03;98168.00;5064144;28;20470;-72
2021/09/25 08:15:14;;;;;;;12.80;11.60;;;15.20;78.10;;;14.33;77.59;98163.53;5061121;28;20473;-71
2021/09/25 08:17:44;;;;;;;13.37;12.13;;;15.30;77.60;;;14.44;78.21;98168.94;5056426;28;20529;-72
2021/09/25 08:20:13;;;;;;;14.20;12.70;;;15.40;77.70;;;14.54;77.17;98154.75;5061006;28;20944;-72
2021/09/25 08:22:41;;;;;;;13.43;12.23;;;15.50;76.70;;;14.50;77.09;98169.09;5060810;28;20813;-72
2021/09/25 08:25:09;;;;;;;12.50;11.50;;;15.50;76.40;;;14.86;75.86;98169.88;5061762;28;20480;-72
2021/09/25 08:27:37;;;;;;;12.50;11.33;;;15.70;75.90;;;14.79;75.66;98172.75;5067562;28;20469;-71
2021/09/25 08:30:05;;;;;;;13.60;12.40;;;15.80;75.40;;;14.93;75.77;98172.47;5068072;28;20483;-72
2021/09/25 08:32:33;;;;;;;13.03;11.83;;;15.90;75.20;;;15.08;74.47;98172.78;5066725;28;20483;-72
2021/09/25 08:35:01;;;;;;;12.53;11.30;;;16.00;74.70;;;15.28;74.56;98175.09;5067607;28;20501;-71
2021/09/25 08:37:28;;;;;;;12.80;11.60;;;16.10;74.40;;;15.35;74.47;98185.00;5067308;28;20551;-71
2021/09/25 08:39:55;;;;;;;13.67;12.13;;;16.20;74.20;;;15.43;73.76;98165.56;5059919;28;20457;-71
2021/09/25 08:42:22;;;;;;;13.00;11.70;;;16.40;73.60;;;15.65;72.64;98168.44;5068161;28;20488;-82
2021/09/25 08:44:52;;;;;;;12.60;11.40;;;16.50;73.20;;;15.66;72.32;98166.50;5065993;28;20481;-71
2021/09/25 08:47:21;;;;;;;11.87;10.53;;;16.60;72.50;;;15.92;71.65;98167.00;5072500;28;20499;-72
2021/09/25 08:49:50;;;;;;;12.37;11.10;;;16.70;72.10;;;16.04;71.37;98170.47;5072360;28;21008;-70
2021/09/25 08:52:18;;;;;;;11.70;10.50;;;16.90;71.80;;;16.01;71.25;98170.97;5072644;28;21005;-72
2021/09/25 08:55:06;;;;;;;12.17;11.07;;;16.90;71.20;;;15.90;71.47;98174.59;5070211;28;20479;-72
2021/09/25 08:57:33;;;;;;;13.07;11.77;;;16.90;70.60;;;15.89;71.73;98179.19;5067938;28;20440;-71
2021/09/25 09:00:38;;;;;;;12.10;10.90;;;16.90;70.90;;;16.16;70.41;98177.75;5066281;28;20869;-72
2021/09/25 09:03:26;;;;;;;11.37;10.20;;;17.00;70.40;;;16.26;70.55;98172.44;5063647;28;21036;-71
2021/09/25 09:06:05;;;;;;;12.87;11.33;;;17.20;70.50;;;16.52;69.52;98175.56;5067364;28;20472;-71
2021/09/25 09:08:32;;;;;;;11.57;10.47;;;17.30;69.90;;;16.76;68.77;98178.91;5069001;28;20501;-70
2021/09/25 09:10:59;;;;;;;12.63;11.33;;;17.60;69.60;;;16.96;67.50;98180.22;5069942;28;20853;-72
2021/09/25 09:13:27;;;;;;;12.90;10.27;;;17.80;68.70;;;16.94;66.72;98175.03;5068713;28;20560;-72
2021/09/25 09:15:55;;;;;;;12.20;11.00;;;17.80;67.80;;;16.72;67.31;98175.03;5062643;28;20480;-73
2021/09/25 09:18:23;;;;;;;14.93;11.07;;;17.70;67.50;;;16.95;66.15;98160.31;5061292;28;20448;-72
2021/09/25 09:21:08;;;;;;;10.93;9.80;;;17.80;67.20;;;16.95;66.78;98168.50;5064119;28;20471;-70
2021/09/25 09:23:38;;;;;;;11.43;9.97;;;17.90;67.10;;;17.18;66.26;98168.53;5072674;28;20452;-70
2021/09/25 09:26:07;;;;;;;11.00;10.00;;;18.00;67.10;;;17.16;66.19;98176.97;5060965;28;20538;-71
2021/09/25 09:28:37;;;;;;;10.80;9.80;;;18.00;66.80;;;17.35;65.71;98172.00;5061706;28;20567;-74
2021/09/25 09:31:07;;;;;;;11.40;10.20;;;18.20;66.60;;;17.55;64.90;98178.75;5058232;28;20465;-74
2021/09/25 09:33:38;;;;;;;11.50;10.30;;;18.30;66.10;;;17.63;64.52;98174.75;5067188;28;20870;-77
2021/09/25 09:36:21;;;;;;;11.30;10.20;;;18.40;65.70;;;17.66;63.95;98176.94;5059846;28;20913;-79
2021/09/25 09:38:52;;;;;;;12.00;9.57;;;18.50;65.30;;;17.53;64.42;98168.09;5066369;28;22790;-79
2021/09/25 09:41:25;;;;;;;11.87;10.73;;;18.40;65.20;;;17.70;64.29;98169.91;5061448;28;20465;-82
2021/09/25 09:43:55;;;;;;;10.63;9.63;;;18.50;65.20;;;17.76;63.68;98168.06;5063617;28;22307;-81
2021/09/25 09:46:33;;;;;;;10.70;9.60;;;18.70;64.90;;;17.95;62.97;98174.78;5060319;28;20482;-83
2021/09/25 09:49:01;;;;;;;9.80;9.00;;;18.70;64.40;;;18.02;62.63;98166.41;5063441;28;20577;-76
2021/09/25 09:51:44;;;;;;;10.47;9.57;;;18.80;64.20;;;18.19;62.34;98168.97;5056174;28;20540;-76
2021/09/25 09:54:22;;;;;;;9.97;9.17;;;18.90;64.10;;;18.03;62.84;98164.47;5060754;28;20476;-71
2021/09/25 09:56:52;;;;;;;10.37;9.37;;;18.90;63.80;;;17.98;62.34;98157.84;5058718;28;20456;-71
2021/09/25 09:59:19;;;;;;;9.53;8.53;;;18.90;63.50;;;18.14;61.91;98149.00;5066024;28;20547;-72
2021/09/25 10:01:46;;;;;;;9.90;8.90;;;18.90;63.30;;;18.38;60.73;98154.91;5063580;28;21059;-75
2021/09/25 10:04:15;;;;;;;9.07;8.27;;;19.10;62.80;;;18.55;60.27;98154.72;5060985;28;20519;-74
2021/09/25 10:06:45;;;;;;;9.30;8.50;;;19.30;62.40;;;18.61;59.64;98156.41;5064774;28;20469;-70
2021/09/25 10:09:15;;;;;;;10.23;8.80;;;19.40;62.10;;;18.73;59.50;98150.72;5066760;28;20464;-70
2021/09/25 10:11:45;;;;;;;9.13;8.33;;;19.50;61.90;;;18.80;59.44;98145.00;5067551;28;20518;-71